createdAt,value
2017-04-10T00:00:57.049Z,1013.36
2017-04-10T00:02:09.604Z,1013.3
2017-04-10T00:03:21.851Z,1013.25
2017-04-10T00:04:34.393Z,1013.27
2017-04-10T00:05:46.913Z,1013.25
2017-04-10T00:06:59.434Z,1013.22
2017-04-10T00:08:12.257Z,1013.22
2017-04-10T00:09:24.774Z,1013.16
2017-04-10T00:10:37.052Z,1013.12
2017-04-10T00:11:49.611Z,1013.11
2017-04-10T00:13:02.131Z,1013.07
2017-04-10T00:14:14.684Z,1013.07
2017-04-10T00:15:27.204Z,1013.02
2017-04-10T00:16:39.700Z,1013.01
2017-04-10T00:17:52.230Z,1012.97
2017-04-10T00:19:04.996Z,1012.95
2017-04-10T00:20:17.492Z,1012.93
2017-04-10T00:21:30.015Z,1012.86
2017-04-10T00:22:42.554Z,1012.85
2017-04-10T00:23:54.793Z,1012.82
2017-04-10T00:25:07.343Z,1012.82
2017-04-10T00:26:19.571Z,1012.77
2017-04-10T00:27:32.098Z,1012.75
2017-04-10T00:28:44.612Z,1012.76
2017-04-10T00:29:57.131Z,1012.73
2017-04-10T00:31:09.679Z,1012.7
2017-04-10T00:32:21.951Z,1012.69
2017-04-10T00:33:34.510Z,1012.68
2017-04-10T00:34:47.019Z,1012.64
2017-04-10T00:35:59.564Z,1012.64
2017-04-10T00:37:11.781Z,1012.63
2017-04-10T00:38:24.293Z,1012.59
2017-04-10T00:39:36.825Z,1012.6
2017-04-10T00:40:49.694Z,1012.6
2017-04-10T00:42:02.235Z,1012.56
2017-04-10T00:43:14.806Z,1012.58
2017-04-10T00:44:27.349Z,1012.56
2017-04-10T00:45:39.904Z,1012.53
2017-04-10T00:46:52.425Z,1012.59
2017-04-10T00:48:04.944Z,1012.56
2017-04-10T00:49:16.915Z,1012.55
2017-04-10T00:50:29.164Z,1012.55
2017-04-10T00:51:41.081Z,1012.52
2017-04-10T00:52:53.595Z,1012.53
2017-04-10T00:54:06.123Z,1012.54
2017-04-10T00:55:18.636Z,1012.48
2017-04-10T00:56:31.179Z,1012.46
2017-04-10T00:57:43.389Z,1012.46
2017-04-10T00:58:55.908Z,1012.41
2017-04-10T01:00:08.428Z,1012.38
2017-04-10T01:01:20.670Z,1012.35
2017-04-10T01:02:33.495Z,1012.35
2017-04-10T01:03:45.745Z,1012.3
2017-04-10T01:04:58.342Z,1012.29
2017-04-10T01:06:10.882Z,1012.25
2017-04-10T01:07:23.380Z,1012.27
2017-04-10T01:08:35.934Z,1012.21
2017-04-10T01:09:48.449Z,1012.24
2017-04-10T01:11:00.996Z,1012.19
2017-04-10T01:12:13.541Z,1012.19
2017-04-10T01:13:26.329Z,1012.15
2017-04-10T01:14:38.553Z,1012.13
2017-04-10T01:15:51.078Z,1012.13
2017-04-10T01:17:03.624Z,1012.15
2017-04-10T01:18:16.166Z,1012.11
2017-04-10T01:19:28.693Z,1012.1
2017-04-10T01:20:40.933Z,1012.11
2017-04-10T01:21:53.459Z,1012.12
2017-04-10T01:23:05.700Z,1012.12
2017-04-10T01:24:17.925Z,1012.09
2017-04-10T01:25:30.466Z,1012.06
2017-04-10T01:26:43.017Z,1012
2017-04-10T01:27:55.537Z,1011.98
2017-04-10T01:29:07.749Z,1011.98
2017-04-10T01:30:20.582Z,1011.97
2017-04-10T01:31:33.149Z,1011.93
2017-04-10T01:32:45.734Z,1011.93
2017-04-10T01:33:58.263Z,1011.94
2017-04-10T01:35:10.780Z,1011.94
2017-04-10T01:36:23.330Z,1011.86
2017-04-10T01:37:35.521Z,1011.86
2017-04-10T01:38:48.083Z,1011.79
2017-04-10T01:40:00.592Z,1011.8
2017-04-10T01:41:12.793Z,1011.75
2017-04-10T01:42:25.005Z,1011.77
2017-04-10T01:43:37.523Z,1011.72
2017-04-10T01:44:50.032Z,1011.69
2017-04-10T01:46:02.806Z,1011.67
2017-04-10T01:47:15.336Z,1011.68
2017-04-10T01:48:27.564Z,1011.68
2017-04-10T01:49:40.093Z,1011.61
2017-04-10T01:50:52.624Z,1011.59
2017-04-10T01:52:05.502Z,1011.51
2017-04-10T01:53:18.051Z,1011.51
2017-04-10T01:54:30.576Z,1011.46
2017-04-10T01:55:43.090Z,1011.47
2017-04-10T01:56:55.614Z,1011.4
2017-04-10T01:58:08.131Z,1011.44
2017-04-10T01:59:20.683Z,1011.41
2017-04-10T02:00:33.207Z,1011.39
2017-04-10T02:01:45.419Z,1011.37
2017-04-10T02:02:57.932Z,1011.36
2017-04-10T02:04:10.465Z,1011.32
2017-04-10T02:05:22.986Z,1011.32
2017-04-10T02:06:35.530Z,1011.26
2017-04-10T02:07:47.445Z,1011.26
2017-04-10T02:08:59.941Z,1011.26
2017-04-10T02:10:12.465Z,1011.24
2017-04-10T02:11:25.015Z,1011.23
2017-04-10T02:12:37.550Z,1011.21
2017-04-10T02:13:50.358Z,1011.13
2017-04-10T02:15:02.877Z,1011.2
2017-04-10T02:16:15.124Z,1011.15
2017-04-10T02:17:27.341Z,1011.1
2017-04-10T02:18:39.862Z,1011.08
2017-04-10T02:19:52.404Z,1011.06
2017-04-10T02:21:04.928Z,1011.1
2017-04-10T02:22:17.420Z,1011.02
2017-04-10T02:23:29.371Z,1011.02
2017-04-10T02:24:41.899Z,1011.02
2017-04-10T02:25:54.462Z,1011.05
2017-04-10T02:27:06.983Z,1011.06
2017-04-10T02:28:19.204Z,1011.03
2017-04-10T02:29:31.747Z,1011.04
2017-04-10T02:30:43.976Z,1011.06
2017-04-10T02:31:56.537Z,1011
2017-04-10T02:33:09.059Z,1011
2017-04-10T02:34:21.590Z,1010.97
2017-04-10T02:35:34.123Z,1010.95
2017-04-10T02:36:46.331Z,1010.94
2017-04-10T02:37:58.574Z,1010.93
2017-04-10T02:39:11.092Z,1010.91
2017-04-10T02:40:23.642Z,1010.92
2017-04-10T02:41:36.173Z,1010.87
2017-04-10T02:42:48.722Z,1010.85
2017-04-10T02:44:01.250Z,1010.89
2017-04-10T02:45:13.476Z,1010.85
2017-04-10T02:46:25.684Z,1010.83
2017-04-10T02:47:38.188Z,1010.84
2017-04-10T02:48:50.711Z,1010.81
2017-04-10T02:50:03.232Z,1010.79
2017-04-10T02:51:15.759Z,1010.75
2017-04-10T02:52:28.269Z,1010.72
2017-04-10T02:53:40.786Z,1010.75
2017-04-10T02:54:53.343Z,1010.66
2017-04-10T02:56:05.864Z,1010.64
2017-04-10T02:57:18.390Z,1010.57
2017-04-10T02:58:30.931Z,1010.55
2017-04-10T02:59:43.473Z,1010.51
2017-04-10T03:00:55.985Z,1010.5
2017-04-10T03:02:08.191Z,1010.43
2017-04-10T03:03:20.411Z,1010.46
2017-04-10T03:04:32.923Z,1010.39
2017-04-10T03:05:45.455Z,1010.37
2017-04-10T03:06:57.699Z,1010.38
2017-04-10T03:08:10.249Z,1010.32
2017-04-10T03:09:22.807Z,1010.31
2017-04-10T03:10:35.339Z,1010.28
2017-04-10T03:11:47.877Z,1010.25
2017-04-10T03:13:00.120Z,1010.23
2017-04-10T03:14:12.340Z,1010.23
2017-04-10T03:15:24.545Z,1010.19
2017-04-10T03:16:36.768Z,1010.2
2017-04-10T03:17:49.278Z,1010.14
2017-04-10T03:19:01.812Z,1010.13
2017-04-10T03:20:14.039Z,1010.12
2017-04-10T03:21:26.566Z,1010.1
2017-04-10T03:22:39.073Z,1010.05
2017-04-10T03:23:51.334Z,1010.05
2017-04-10T03:25:03.841Z,1010.06
2017-04-10T03:26:16.363Z,1010.08
2017-04-10T03:27:28.607Z,1010.04
2017-04-10T03:28:40.831Z,1010.04
2017-04-10T03:29:53.371Z,1010.02
2017-04-10T03:31:05.594Z,1010.01
2017-04-10T03:32:18.121Z,1010
2017-04-10T03:33:30.041Z,1010
2017-04-10T03:34:42.553Z,1010.02
2017-04-10T03:35:54.799Z,1009.99
2017-04-10T03:37:07.349Z,1009.99
2017-04-10T03:38:19.891Z,1009.92
2017-04-10T03:39:32.412Z,1009.93
2017-04-10T03:40:44.962Z,1009.9
2017-04-10T03:41:57.509Z,1009.91
2017-04-10T03:43:09.421Z,1009.82
2017-04-10T03:44:21.974Z,1009.86
2017-04-10T03:45:34.771Z,1009.78
2017-04-10T03:46:47.006Z,1009.78
2017-04-10T03:47:59.517Z,1009.75
2017-04-10T03:49:11.730Z,1009.71
2017-04-10T03:50:24.251Z,1009.73
2017-04-10T03:51:36.489Z,1009.76
2017-04-10T03:52:48.992Z,1009.7
2017-04-10T03:54:01.516Z,1009.71
2017-04-10T03:55:14.060Z,1009.68
2017-04-10T03:56:26.258Z,1009.67
2017-04-10T03:57:38.771Z,1009.64
2017-04-10T03:58:51.322Z,1009.65
2017-04-10T04:00:03.873Z,1009.69
2017-04-10T04:01:16.414Z,1009.69
2017-04-10T04:02:28.944Z,1009.68
2017-04-10T04:03:41.176Z,1009.7
2017-04-10T04:04:53.694Z,1009.67
2017-04-10T04:06:06.208Z,1009.66
2017-04-10T04:07:19.044Z,1009.66
2017-04-10T04:08:31.594Z,1009.61
2017-04-10T04:09:44.120Z,1009.61
2017-04-10T04:10:56.656Z,1009.57
2017-04-10T04:12:09.183Z,1009.6
2017-04-10T04:13:21.400Z,1009.56
2017-04-10T04:14:33.948Z,1009.52
2017-04-10T04:15:46.482Z,1009.5
2017-04-10T04:16:58.981Z,1009.51
2017-04-10T04:18:11.490Z,1009.49
2017-04-10T04:19:24.012Z,1009.45
2017-04-10T04:20:36.529Z,1009.43
2017-04-10T04:21:48.812Z,1009.43
2017-04-10T04:23:01.340Z,1009.41
2017-04-10T04:24:13.889Z,1009.43
2017-04-10T04:25:26.410Z,1009.39
2017-04-10T04:26:38.948Z,1009.41
2017-04-10T04:27:51.478Z,1009.4
2017-04-10T04:29:04.004Z,1009.42
2017-04-10T04:30:16.519Z,1009.38
2017-04-10T04:31:28.740Z,1009.38
2017-04-10T04:32:41.312Z,1009.43
2017-04-10T04:33:53.878Z,1009.38
2017-04-10T04:35:06.102Z,1009.37
2017-04-10T04:36:18.629Z,1009.36
2017-04-10T04:37:31.165Z,1009.36
2017-04-10T04:38:43.691Z,1009.36
2017-04-10T04:39:56.211Z,1009.34
2017-04-10T04:41:08.730Z,1009.31
2017-04-10T04:42:21.250Z,1009.29
2017-04-10T04:43:33.767Z,1009.33
2017-04-10T04:44:46.323Z,1009.3
2017-04-10T04:45:58.859Z,1009.33
2017-04-10T04:47:11.393Z,1009.31
2017-04-10T04:48:23.897Z,1009.31
2017-04-10T04:49:36.396Z,1009.28
2017-04-10T04:50:49.194Z,1009.28
2017-04-10T04:52:01.718Z,1009.26
2017-04-10T04:53:14.263Z,1009.25
2017-04-10T04:54:26.488Z,1009.21
2017-04-10T04:55:39.013Z,1009.19
2017-04-10T04:56:51.254Z,1009.23
2017-04-10T04:58:03.792Z,1009.23
2017-04-10T04:59:16.317Z,1009.22
2017-04-10T05:00:28.842Z,1009.23
2017-04-10T05:01:41.614Z,1009.27
2017-04-10T05:02:54.159Z,1009.24
2017-04-10T05:04:06.727Z,1009.28
2017-04-10T05:05:18.948Z,1009.25
2017-04-10T05:06:31.472Z,1009.3
2017-04-10T05:07:44.006Z,1009.24
2017-04-10T05:08:56.502Z,1009.25
2017-04-10T05:10:09.009Z,1009.21
2017-04-10T05:11:21.544Z,1009.21
2017-04-10T05:12:34.377Z,1009.2
2017-04-10T05:13:46.898Z,1009.22
2017-04-10T05:14:59.446Z,1009.18
2017-04-10T05:16:11.980Z,1009.18
2017-04-10T05:17:24.511Z,1009.16
2017-04-10T05:18:37.033Z,1009.15
2017-04-10T05:19:49.244Z,1009.13
2017-04-10T05:21:01.748Z,1009.1
2017-04-10T05:22:14.294Z,1009.15
2017-04-10T05:23:27.082Z,1009.12
2017-04-10T05:24:39.610Z,1009.11
2017-04-10T05:25:52.132Z,1009.07
2017-04-10T05:27:04.676Z,1009.09
2017-04-10T05:28:16.887Z,1009.09
2017-04-10T05:29:29.414Z,1009.09
2017-04-10T05:30:41.666Z,1009.11
2017-04-10T05:31:54.186Z,1009.11
2017-04-10T05:33:06.132Z,1009.14
2017-04-10T05:34:18.049Z,1009.14
2017-04-10T05:35:30.595Z,1009.11
2017-04-10T05:36:43.147Z,1009.09
2017-04-10T05:37:55.665Z,1009.05
2017-04-10T05:39:08.211Z,1009.06
2017-04-10T05:40:20.729Z,1009.03
2017-04-10T05:41:33.277Z,1008.98
2017-04-10T05:42:45.817Z,1009
2017-04-10T05:43:58.320Z,1008.99
2017-04-10T05:45:10.540Z,1008.97
2017-04-10T05:46:23.062Z,1008.98
2017-04-10T05:47:35.608Z,1008.99
2017-04-10T05:48:48.155Z,1009
2017-04-10T05:50:00.692Z,1008.99
2017-04-10T05:51:12.946Z,1008.92
2017-04-10T05:52:25.488Z,1008.9
2017-04-10T05:53:38.033Z,1008.85
2017-04-10T05:54:50.557Z,1008.84
2017-04-10T05:56:03.075Z,1008.85
2017-04-10T05:57:15.304Z,1008.79
2017-04-10T05:58:27.842Z,1008.89
2017-04-10T05:59:39.742Z,1008.81
2017-04-10T06:00:52.260Z,1008.83
2017-04-10T06:02:04.831Z,1008.82
2017-04-10T06:03:17.355Z,1008.82
2017-04-10T06:04:29.848Z,1008.83
2017-04-10T06:05:42.372Z,1008.8
2017-04-10T06:06:54.898Z,1008.76
2017-04-10T06:08:07.435Z,1008.72
2017-04-10T06:09:19.384Z,1008.75
2017-04-10T06:10:31.902Z,1008.71
2017-04-10T06:11:44.165Z,1008.68
2017-04-10T06:12:56.721Z,1008.68
2017-04-10T06:14:09.264Z,1008.64
2017-04-10T06:15:21.803Z,1008.61
2017-04-10T06:16:34.348Z,1008.61
2017-04-10T06:17:46.827Z,1008.53
2017-04-10T06:18:59.354Z,1008.55
2017-04-10T06:20:11.897Z,1008.55
2017-04-10T06:21:24.433Z,1008.53
2017-04-10T06:22:36.661Z,1008.53
2017-04-10T06:23:48.902Z,1008.5
2017-04-10T06:25:01.434Z,1008.45
2017-04-10T06:26:13.651Z,1008.48
2017-04-10T06:27:26.197Z,1008.46
2017-04-10T06:28:38.733Z,1008.44
2017-04-10T06:29:50.954Z,1008.43
2017-04-10T06:31:03.163Z,1008.46
2017-04-10T06:32:15.703Z,1008.47
2017-04-10T06:33:28.225Z,1008.44
2017-04-10T06:34:40.767Z,1008.4
2017-04-10T06:35:53.284Z,1008.45
2017-04-10T06:37:05.514Z,1008.4
2017-04-10T06:38:18.054Z,1008.43
2017-04-10T06:39:30.582Z,1008.39
2017-04-10T06:40:42.849Z,1008.39
2017-04-10T06:41:55.087Z,1008.34
2017-04-10T06:43:07.294Z,1008.32
2017-04-10T06:44:19.841Z,1008.35
2017-04-10T06:45:32.388Z,1008.32
2017-04-10T06:46:44.959Z,1008.29
2017-04-10T06:47:57.495Z,1008.28
2017-04-10T06:49:10.049Z,1008.3
2017-04-10T06:50:22.592Z,1008.3
2017-04-10T06:51:35.115Z,1008.27
2017-04-10T06:52:47.664Z,1008.25
2017-04-10T06:54:00.207Z,1008.28
2017-04-10T06:55:12.425Z,1008.26
2017-04-10T06:56:24.950Z,1008.23
2017-04-10T06:57:37.471Z,1008.28
2017-04-10T06:58:50.016Z,1008.29
2017-04-10T07:00:02.551Z,1008.29
2017-04-10T07:01:15.075Z,1008.24
2017-04-10T07:02:27.635Z,1008.22
2017-04-10T07:03:40.146Z,1008.2
2017-04-10T07:04:52.367Z,1008.18
2017-04-10T07:06:04.920Z,1008.24
2017-04-10T07:07:17.502Z,1008.24
2017-04-10T07:08:30.034Z,1008.24
2017-04-10T07:09:42.276Z,1008.15
2017-04-10T07:10:54.801Z,1008.16
2017-04-10T07:12:07.346Z,1008.1
2017-04-10T07:13:19.893Z,1008.18
2017-04-10T07:14:32.436Z,1008.22
2017-04-10T07:15:44.630Z,1008.13
2017-04-10T07:16:57.176Z,1008.17
2017-04-10T07:18:09.692Z,1008.13
2017-04-10T07:19:21.622Z,1008.09
2017-04-10T07:20:34.180Z,1008.07
2017-04-10T07:21:46.703Z,1008.11
2017-04-10T07:22:59.483Z,1008.12
2017-04-10T07:24:11.405Z,1008.07
2017-04-10T07:25:23.948Z,1008.09
2017-04-10T07:26:36.494Z,1008.1
2017-04-10T07:27:49.042Z,1008.18
2017-04-10T07:29:01.613Z,1008.16
2017-04-10T07:30:14.159Z,1008.18
2017-04-10T07:31:26.723Z,1008.17
2017-04-10T07:32:39.273Z,1008.14
2017-04-10T07:33:51.819Z,1008.18
2017-04-10T07:35:04.346Z,1008.13
2017-04-10T07:36:16.888Z,1008.13
2017-04-10T07:37:29.413Z,1008.13
2017-04-10T07:38:41.952Z,1008.09
2017-04-10T07:39:54.194Z,1008.1
2017-04-10T07:41:06.448Z,1008.06
2017-04-10T07:42:19.022Z,1008.05
2017-04-10T07:43:31.595Z,1008.05
2017-04-10T07:44:44.132Z,1008.08
2017-04-10T07:45:56.673Z,1008.02
2017-04-10T07:47:09.217Z,1008
2017-04-10T07:48:21.745Z,1008
2017-04-10T07:49:33.944Z,1008.05
2017-04-10T07:50:46.459Z,1008.02
2017-04-10T07:51:59.012Z,1008.04
2017-04-10T07:53:10.958Z,1008.01
2017-04-10T07:54:23.176Z,1007.98
2017-04-10T07:55:35.170Z,1007.97
2017-04-10T07:56:47.724Z,1007.9
2017-04-10T07:58:00.278Z,1007.96
2017-04-10T07:59:12.814Z,1007.97
2017-04-10T08:00:25.376Z,1007.91
2017-04-10T08:01:37.920Z,1007.88
2017-04-10T08:02:50.199Z,1007.92
2017-04-10T08:04:02.749Z,1007.88
2017-04-10T08:05:15.291Z,1007.89
2017-04-10T08:06:27.837Z,1007.94
2017-04-10T08:07:40.400Z,1007.85
2017-04-10T08:08:52.955Z,1007.93
2017-04-10T08:10:05.170Z,1007.88
2017-04-10T08:11:17.394Z,1007.88
2017-04-10T08:12:29.616Z,1007.9
2017-04-10T08:13:42.162Z,1007.88
2017-04-10T08:14:54.433Z,1007.84
2017-04-10T08:16:06.647Z,1007.88
2017-04-10T08:17:19.205Z,1007.84
2017-04-10T08:18:31.763Z,1007.78
2017-04-10T08:19:44.006Z,1007.82
2017-04-10T08:20:55.913Z,1007.88
2017-04-10T08:22:08.452Z,1007.91
2017-04-10T08:23:20.978Z,1007.92
2017-04-10T08:24:33.515Z,1007.87
2017-04-10T08:25:46.045Z,1007.88
2017-04-10T08:26:58.581Z,1007.93
2017-04-10T08:28:10.813Z,1007.89
2017-04-10T08:29:23.359Z,1007.88
2017-04-10T08:30:35.909Z,1007.84
2017-04-10T08:31:48.141Z,1007.89
2017-04-10T08:33:00.419Z,1007.87
2017-04-10T08:34:12.669Z,1007.88
2017-04-10T08:35:25.190Z,1007.9
2017-04-10T08:36:37.729Z,1007.86
2017-04-10T08:37:50.261Z,1007.86
2017-04-10T08:39:03.023Z,1007.85
2017-04-10T08:40:14.975Z,1007.9
2017-04-10T08:41:27.520Z,1007.86
2017-04-10T08:42:40.035Z,1007.84
2017-04-10T08:43:52.556Z,1007.85
2017-04-10T08:45:04.821Z,1007.82
2017-04-10T08:46:17.351Z,1007.81
2017-04-10T08:47:29.916Z,1007.87
2017-04-10T08:48:42.465Z,1007.9
2017-04-10T08:49:54.707Z,1007.81
2017-04-10T08:51:06.932Z,1007.83
2017-04-10T08:52:19.473Z,1007.93
2017-04-10T08:53:31.402Z,1007.9
2017-04-10T08:54:43.600Z,1007.92
2017-04-10T08:55:56.120Z,1007.9
2017-04-10T08:57:08.658Z,1007.88
2017-04-10T08:58:21.185Z,1007.88
2017-04-10T08:59:33.110Z,1007.81
2017-04-10T09:00:45.671Z,1007.79
2017-04-10T09:01:58.240Z,1007.78
2017-04-10T09:03:10.469Z,1007.8
2017-04-10T09:04:23.012Z,1007.74
2017-04-10T09:05:35.560Z,1007.69
2017-04-10T09:06:47.824Z,1007.78
2017-04-10T09:08:00.350Z,1007.73
2017-04-10T09:09:12.888Z,1007.73
2017-04-10T09:10:25.392Z,1007.68
2017-04-10T09:11:37.945Z,1007.68
2017-04-10T09:12:50.201Z,1007.68
2017-04-10T09:14:02.734Z,1007.69
2017-04-10T09:15:14.680Z,1007.74
2017-04-10T09:16:27.251Z,1007.67
2017-04-10T09:17:39.793Z,1007.69
2017-04-10T09:18:52.031Z,1007.68
2017-04-10T09:20:03.954Z,1007.62
2017-04-10T09:21:16.230Z,1007.63
2017-04-10T09:22:28.481Z,1007.65
2017-04-10T09:23:41.043Z,1007.66
2017-04-10T09:24:53.599Z,1007.61
2017-04-10T09:26:06.134Z,1007.56
2017-04-10T09:27:18.663Z,1007.68
2017-04-10T09:28:30.901Z,1007.64
2017-04-10T09:29:43.105Z,1007.55
2017-04-10T09:30:55.344Z,1007.58
2017-04-10T09:32:07.614Z,1007.58
2017-04-10T09:33:19.542Z,1007.57
2017-04-10T09:34:31.804Z,1007.58
2017-04-10T09:35:44.036Z,1007.54
2017-04-10T09:36:56.582Z,1007.6
2017-04-10T09:38:08.831Z,1007.59
2017-04-10T09:39:21.089Z,1007.61
2017-04-10T09:40:33.019Z,1007.58
2017-04-10T09:41:45.515Z,1007.58
2017-04-10T09:42:57.137Z,1007.53
2017-04-10T09:44:09.705Z,1007.54
2017-04-10T09:45:21.673Z,1007.59
2017-04-10T09:46:34.211Z,1007.58
2017-04-10T09:47:46.436Z,1007.59
2017-04-10T09:48:58.366Z,1007.55
2017-04-10T09:50:10.627Z,1007.57
2017-04-10T09:51:22.553Z,1007.6
2017-04-10T09:52:35.078Z,1007.54
2017-04-10T09:53:47.323Z,1007.54
2017-04-10T09:54:59.562Z,1007.48
2017-04-10T09:56:11.489Z,1007.59
2017-04-10T09:57:23.434Z,1007.58
2017-04-10T09:58:35.385Z,1007.6
2017-04-10T09:59:47.054Z,1007.68
2017-04-10T10:00:59.845Z,1007.62
2017-04-10T10:02:11.794Z,1007.67
2017-04-10T10:03:23.758Z,1007.63
2017-04-10T10:04:36.288Z,1007.64
2017-04-10T10:05:48.832Z,1007.64
2017-04-10T10:07:00.777Z,1007.64
2017-04-10T10:08:12.438Z,1007.63
2017-04-10T10:09:24.946Z,1007.63
2017-04-10T10:10:37.165Z,1007.65
2017-04-10T10:11:49.726Z,1007.62
2017-04-10T10:13:01.361Z,1007.72
2017-04-10T10:14:13.900Z,1007.78
2017-04-10T10:15:26.124Z,1007.76
2017-04-10T10:16:38.347Z,1007.77
2017-04-10T10:17:50.309Z,1007.75
2017-04-10T10:19:01.941Z,1007.78
2017-04-10T10:20:13.875Z,1007.77
2017-04-10T10:21:26.430Z,1007.69
2017-04-10T10:22:38.692Z,1007.73
2017-04-10T10:23:51.247Z,1007.65
2017-04-10T10:25:03.788Z,1007.61
2017-04-10T10:26:16.035Z,1007.64
2017-04-10T10:27:28.026Z,1007.67
2017-04-10T10:28:40.293Z,1007.67
2017-04-10T10:29:52.540Z,1007.72
2017-04-10T10:31:05.071Z,1007.72
2017-04-10T10:32:17.015Z,1007.67
2017-04-10T10:33:29.536Z,1007.68
2017-04-10T10:34:42.098Z,1007.74
2017-04-10T10:35:54.349Z,1007.67
2017-04-10T10:37:05.698Z,1007.67
2017-04-10T10:38:17.911Z,1007.84
2017-04-10T10:39:30.158Z,1007.84
2017-04-10T10:40:42.378Z,1007.82
2017-04-10T10:41:54.011Z,1007.87
2017-04-10T10:43:06.273Z,1007.85
2017-04-10T10:44:18.855Z,1007.84
2017-04-10T10:45:31.398Z,1007.9
2017-04-10T10:46:43.365Z,1007.92
2017-04-10T10:47:55.931Z,1007.94
2017-04-10T10:49:07.561Z,1007.89
2017-04-10T10:50:19.807Z,1007.95
2017-04-10T10:51:31.753Z,1007.86
2017-04-10T10:52:43.387Z,1007.85
2017-04-10T10:53:55.333Z,1007.86
2017-04-10T10:55:07.565Z,1007.82
2017-04-10T10:56:20.111Z,1007.75
2017-04-10T10:57:32.357Z,1007.68
2017-04-10T10:58:44.576Z,1007.71
2017-04-10T10:59:56.825Z,1007.75
2017-04-10T11:01:08.798Z,1007.71
2017-04-10T11:02:20.746Z,1007.72
2017-04-10T11:03:33.304Z,1007.8
2017-04-10T11:04:45.283Z,1007.87
2017-04-10T11:05:57.542Z,1007.84
2017-04-10T11:07:10.092Z,1007.87
2017-04-10T11:08:22.035Z,1007.89
2017-04-10T11:09:34.256Z,1007.84
2017-04-10T11:10:46.476Z,1007.95
2017-04-10T11:11:58.107Z,1007.91
2017-04-10T11:13:10.380Z,1007.91
2017-04-10T11:14:22.942Z,1007.85
2017-04-10T11:15:35.488Z,1007.88
2017-04-10T11:16:47.743Z,1008.06
2017-04-10T11:18:00.002Z,1008.1
2017-04-10T11:19:12.547Z,1008.2
2017-04-10T11:20:24.778Z,1008.16
2017-04-10T11:21:36.423Z,1008.27
2017-04-10T11:22:47.785Z,1008.44
2017-04-10T11:23:59.763Z,1008.23
2017-04-10T11:25:11.713Z,1008.14
2017-04-10T11:26:23.984Z,1008.2
2017-04-10T11:27:36.274Z,1008.22
2017-04-10T11:28:48.846Z,1008.36
2017-04-10T11:30:01.111Z,1008.41
2017-04-10T11:31:13.032Z,1008.48
2017-04-10T11:32:24.992Z,1008.58
2017-04-10T11:33:36.927Z,1008.55
2017-04-10T11:34:49.189Z,1008.6
2017-04-10T11:36:01.777Z,1008.62
2017-04-10T11:37:13.454Z,1008.61
2017-04-10T11:38:25.699Z,1008.69
2017-04-10T11:39:37.932Z,1008.73
2017-04-10T11:40:50.205Z,1008.75
2017-04-10T11:42:02.777Z,1008.7
2017-04-10T11:43:15.053Z,1008.7
2017-04-10T11:44:27.312Z,1008.76
2017-04-10T11:45:39.868Z,1008.81
2017-04-10T11:46:52.418Z,1008.73
2017-04-10T11:48:04.658Z,1008.7
2017-04-10T11:49:16.878Z,1008.7
2017-04-10T11:50:29.449Z,1008.7
2017-04-10T11:51:41.713Z,1008.63
2017-04-10T11:52:53.935Z,1008.79
2017-04-10T11:54:06.170Z,1008.84
2017-04-10T11:55:18.111Z,1008.9
2017-04-10T11:56:30.658Z,1008.96
2017-04-10T11:57:43.207Z,1008.89
2017-04-10T11:58:55.467Z,1008.86
2017-04-10T12:00:08.017Z,1008.84
2017-04-10T12:01:20.320Z,1008.86
2017-04-10T12:02:32.580Z,1008.78
2017-04-10T12:03:45.129Z,1009.09
2017-04-10T12:04:57.384Z,1009.05
2017-04-10T12:06:09.917Z,1008.92
2017-04-10T12:07:22.470Z,1008.99
2017-04-10T12:08:35.034Z,1009.04
2017-04-10T12:09:47.284Z,1009.04
2017-04-10T12:10:59.861Z,1009.13
2017-04-10T12:12:12.105Z,1009.27
2017-04-10T12:13:24.650Z,1009.18
2017-04-10T12:14:37.152Z,1009.26
2017-04-10T12:15:49.415Z,1009.29
2017-04-10T12:17:01.615Z,1009.28
2017-04-10T12:18:14.173Z,1009.22
2017-04-10T12:19:26.404Z,1009.22
2017-04-10T12:20:38.957Z,1009.24
2017-04-10T12:21:50.870Z,1009.27
2017-04-10T12:23:03.416Z,1009.27
2017-04-10T12:24:15.660Z,1009.26
2017-04-10T12:25:27.902Z,1009.22
2017-04-10T12:26:40.153Z,1009.36
2017-04-10T12:27:52.693Z,1009.31
2017-04-10T12:29:05.220Z,1009.37
2017-04-10T12:30:17.475Z,1009.38
2017-04-10T12:31:30.020Z,1009.54
2017-04-10T12:32:42.257Z,1009.4
2017-04-10T12:33:54.803Z,1009.44
2017-04-10T12:35:07.044Z,1009.42
2017-04-10T12:36:18.975Z,1009.45
2017-04-10T12:37:31.840Z,1009.49
2017-04-10T12:38:44.408Z,1009.34
2017-04-10T12:39:56.957Z,1009.56
2017-04-10T12:41:09.202Z,1009.43
2017-04-10T12:42:21.429Z,1009.42
2017-04-10T12:43:33.973Z,1009.58
2017-04-10T12:44:46.190Z,1009.7
2017-04-10T12:45:58.415Z,1009.6
2017-04-10T12:47:10.974Z,1009.66
2017-04-10T12:48:23.209Z,1009.73
2017-04-10T12:49:35.750Z,1009.69
2017-04-10T12:50:48.304Z,1009.65
2017-04-10T12:52:00.548Z,1009.56
2017-04-10T12:53:13.065Z,1009.64
2017-04-10T12:54:25.608Z,1009.63
2017-04-10T12:55:37.834Z,1009.73
2017-04-10T12:56:50.377Z,1009.63
2017-04-10T12:58:02.946Z,1009.71
2017-04-10T12:59:15.467Z,1009.67
2017-04-10T13:00:27.967Z,1009.66
2017-04-10T13:01:40.513Z,1009.62
2017-04-10T13:02:53.060Z,1009.75
2017-04-10T13:04:05.303Z,1009.66
2017-04-10T13:05:17.528Z,1010.09
2017-04-10T13:06:30.109Z,1009.84
2017-04-10T13:07:42.034Z,1009.91
2017-04-10T13:08:54.576Z,1009.8
2017-04-10T13:10:07.129Z,1009.79
2017-04-10T13:11:19.100Z,1009.85
2017-04-10T13:12:31.628Z,1009.65
2017-04-10T13:13:43.872Z,1009.7
2017-04-10T13:14:56.435Z,1009.65
2017-04-10T13:16:08.688Z,1009.72
2017-04-10T13:17:20.934Z,1009.64
2017-04-10T13:18:33.481Z,1009.62
2017-04-10T13:19:45.742Z,1009.59
2017-04-10T13:20:57.988Z,1009.66
2017-04-10T13:22:10.518Z,1009.78
2017-04-10T13:23:23.034Z,1009.89
2017-04-10T13:24:35.577Z,1009.82
2017-04-10T13:25:48.138Z,1009.87
2017-04-10T13:27:00.369Z,1009.91
2017-04-10T13:28:12.950Z,1009.91
2017-04-10T13:29:25.488Z,1009.91
2017-04-10T13:30:37.165Z,1009.79
2017-04-10T13:31:49.738Z,1009.78
2017-04-10T13:33:01.972Z,1009.85
2017-04-10T13:34:13.644Z,1009.95
2017-04-10T13:35:25.597Z,1009.99
2017-04-10T13:36:37.543Z,1010.09
2017-04-10T13:37:49.790Z,1009.98
2017-04-10T13:39:02.331Z,1010
2017-04-10T13:40:14.558Z,1009.94
2017-04-10T13:41:26.776Z,1010.06
2017-04-10T13:42:38.697Z,1010.15
2017-04-10T13:43:51.307Z,1010.21
2017-04-10T13:45:03.866Z,1010.13
2017-04-10T13:46:16.399Z,1010
2017-04-10T13:47:28.324Z,1010.12
2017-04-10T13:48:40.270Z,1010.08
2017-04-10T13:49:52.841Z,1010.2
2017-04-10T13:51:05.344Z,1010.34
2017-04-10T13:52:16.983Z,1010.2
2017-04-10T13:53:29.225Z,1010.33
2017-04-10T13:54:41.428Z,1010.32
2017-04-10T13:55:53.394Z,1010.29
2017-04-10T13:57:05.902Z,1010.26
2017-04-10T13:58:17.816Z,1010.17
2017-04-10T13:59:30.354Z,1010.21
2017-04-10T14:00:42.609Z,1010.2
2017-04-10T14:01:54.558Z,1010.16
2017-04-10T14:03:06.800Z,1010.16
2017-04-10T14:04:19.028Z,1010.11
2017-04-10T14:05:31.567Z,1010.19
2017-04-10T14:06:43.192Z,1010.16
2017-04-10T14:07:55.152Z,1010.18
2017-04-10T14:09:07.083Z,1010.39
2017-04-10T14:10:19.030Z,1010.29
2017-04-10T14:11:31.251Z,1010.34
2017-04-10T14:12:43.810Z,1010.26
2017-04-10T14:13:56.326Z,1010.27
2017-04-10T14:15:08.854Z,1010.22
2017-04-10T14:16:21.101Z,1010.17
2017-04-10T14:17:33.669Z,1010.15
2017-04-10T14:18:46.202Z,1010.2
2017-04-10T14:19:58.768Z,1010.17
2017-04-10T14:21:11.371Z,1010.2
2017-04-10T14:22:23.910Z,1010.36
2017-04-10T14:23:36.481Z,1010.28
2017-04-10T14:24:48.708Z,1010.2
2017-04-10T14:26:01.027Z,1010.1
2017-04-10T14:27:13.273Z,1010.21
2017-04-10T14:28:25.198Z,1010.23
2017-04-10T14:29:37.756Z,1010.28
2017-04-10T14:30:49.985Z,1010.33
2017-04-10T14:32:02.199Z,1010.25
2017-04-10T14:33:14.423Z,1010.39
2017-04-10T14:34:26.672Z,1010.34
2017-04-10T14:35:38.934Z,1010.26
2017-04-10T14:36:51.140Z,1010.34
2017-04-10T14:38:03.682Z,1010.38
2017-04-10T14:39:15.928Z,1010.47